createdAt,value
2017-09-21T00:00:20.470Z,14.50
2017-09-21T00:02:47.986Z,17.23
2017-09-21T00:05:15.490Z,15.97
2017-09-21T00:07:43.011Z,14.73
2017-09-21T00:10:10.507Z,11.30
2017-09-21T00:12:38.007Z,13.60
2017-09-21T00:15:06.287Z,12.93
2017-09-21T00:17:33.791Z,14.40
2017-09-21T00:20:01.308Z,11.77
2017-09-21T00:22:28.807Z,10.50
2017-09-21T00:24:56.319Z,13.77
2017-09-21T00:27:24.587Z,15.10
2017-09-21T00:29:52.872Z,13.40
2017-09-21T00:32:21.134Z,10.53
2017-09-21T00:34:49.414Z,11.10
2017-09-21T00:37:17.674Z,14.20
2017-09-21T00:39:45.199Z,13.03
2017-09-21T00:42:12.698Z,13.60
2017-09-21T00:44:40.983Z,13.80
2017-09-21T00:47:09.246Z,10.90
2017-09-21T00:49:36.763Z,15.07
2017-09-21T00:52:04.259Z,17.53
2017-09-21T00:54:31.775Z,10.97
2017-09-21T00:56:59.271Z,14.47
2017-09-21T00:59:26.792Z,12.50
2017-09-21T01:01:54.297Z,13.67
2017-09-21T01:04:22.590Z,15.23
2017-09-21T01:06:50.859Z,14.67
2017-09-21T01:09:19.164Z,16.27
2017-09-21T01:11:46.666Z,11.60
2017-09-21T01:14:14.175Z,16.77
2017-09-21T01:16:41.691Z,13.83
2017-09-21T01:19:09.203Z,18.13
2017-09-21T01:21:36.718Z,13.63
2017-09-21T01:24:04.983Z,13.37
2017-09-21T01:26:34.113Z,15.80
2017-09-21T01:29:01.623Z,13.77
2017-09-21T01:31:29.144Z,13.77
2017-09-21T01:33:56.638Z,18.10
2017-09-21T01:36:24.159Z,14.57
2017-09-21T01:38:51.660Z,15.97
2017-09-21T01:41:19.179Z,14.00
2017-09-21T01:43:46.682Z,15.03
2017-09-21T01:46:14.207Z,12.80
2017-09-21T01:48:41.707Z,14.20
2017-09-21T01:51:09.231Z,14.57
2017-09-21T01:53:36.732Z,13.93
2017-09-21T01:56:05.011Z,15.03
2017-09-21T01:58:33.270Z,12.60
2017-09-21T02:01:00.788Z,14.53
2017-09-21T02:03:28.287Z,14.37
2017-09-21T02:05:55.819Z,13.10
2017-09-21T02:08:23.315Z,13.57
2017-09-21T02:10:51.579Z,16.77
2017-09-21T02:13:19.094Z,12.70
2017-09-21T02:15:46.594Z,15.97
2017-09-21T02:18:14.112Z,13.77
2017-09-21T02:20:42.383Z,14.10
2017-09-21T02:23:09.904Z,13.70
2017-09-21T02:25:38.167Z,12.20
2017-09-21T02:28:06.447Z,11.70
2017-09-21T02:30:34.712Z,14.47
2017-09-21T02:33:02.240Z,14.87
2017-09-21T02:35:29.749Z,12.90
2017-09-21T02:37:58.030Z,14.77
2017-09-21T02:40:26.299Z,12.37
2017-09-21T02:42:54.579Z,11.23
2017-09-21T02:45:22.843Z,12.60
2017-09-21T02:47:51.128Z,11.47
2017-09-21T02:50:19.404Z,12.43
2017-09-21T02:52:47.695Z,16.97
2017-09-21T02:55:15.196Z,10.97
2017-09-21T02:57:42.715Z,15.00
2017-09-21T03:00:10.210Z,11.77
2017-09-21T03:02:37.723Z,9.97
2017-09-21T03:05:05.235Z,11.40
2017-09-21T03:07:32.756Z,14.33
2017-09-21T03:10:00.254Z,14.30
2017-09-21T03:12:27.751Z,14.83
2017-09-21T03:14:55.266Z,13.80
2017-09-21T03:17:22.775Z,12.73
2017-09-21T03:19:50.291Z,15.20
2017-09-21T03:22:17.787Z,14.40
2017-09-21T03:24:45.311Z,13.50
2017-09-21T03:27:12.815Z,13.90
2017-09-21T03:29:40.333Z,14.07
2017-09-21T03:32:07.996Z,11.70
2017-09-21T03:34:36.298Z,11.73
2017-09-21T03:37:03.799Z,12.87
2017-09-21T03:39:31.329Z,12.70
2017-09-21T03:41:58.835Z,13.60
2017-09-21T03:44:26.352Z,11.40
2017-09-21T03:46:53.868Z,15.37
2017-09-21T03:49:22.163Z,12.70
2017-09-21T03:51:50.431Z,21.10
2017-09-21T03:54:18.707Z,19.87
2017-09-21T03:56:46.968Z,18.40
2017-09-21T03:59:14.488Z,14.93
2017-09-21T04:01:42.769Z,16.43
2017-09-21T04:04:10.287Z,17.47
2017-09-21T04:06:37.785Z,16.33
2017-09-21T04:09:05.318Z,12.97
2017-09-21T04:11:32.820Z,13.37
2017-09-21T04:14:00.318Z,13.83
2017-09-21T04:16:27.835Z,12.90
2017-09-21T04:18:55.343Z,13.60
2017-09-21T04:21:22.858Z,9.13
2017-09-21T04:23:50.364Z,11.93
2017-09-21T04:26:17.888Z,15.67
2017-09-21T04:28:46.156Z,11.80
2017-09-21T04:31:13.675Z,13.30
2017-09-21T04:33:41.167Z,12.83
2017-09-21T04:36:08.683Z,11.50
2017-09-21T04:38:36.185Z,10.30
2017-09-21T04:41:03.707Z,14.17
2017-09-21T04:43:31.204Z,11.90
2017-09-21T04:45:59.116Z,11.83
2017-09-21T04:48:26.618Z,14.60
2017-09-21T04:50:54.139Z,11.83
2017-09-21T04:53:21.646Z,13.10
2017-09-21T04:55:49.172Z,12.70
2017-09-21T04:58:16.670Z,14.73
2017-09-21T05:00:45.022Z,12.17
2017-09-21T05:03:12.575Z,13.23
2017-09-21T05:05:40.165Z,12.37
2017-09-21T05:08:08.480Z,18.20
2017-09-21T05:10:36.071Z,14.10
2017-09-21T05:13:04.407Z,14.20
2017-09-21T05:15:31.911Z,16.07
2017-09-21T05:17:59.427Z,16.93
2017-09-21T05:20:26.932Z,15.70
2017-09-21T05:22:54.443Z,16.30
2017-09-21T05:25:21.947Z,12.70
2017-09-21T05:27:49.463Z,14.73
2017-09-21T05:30:16.963Z,17.23
2017-09-21T05:32:45.003Z,11.53
2017-09-21T05:35:12.514Z,11.43
2017-09-21T05:37:40.795Z,12.00
2017-09-21T05:40:09.058Z,13.30
2017-09-21T05:42:36.589Z,11.10
2017-09-21T05:45:04.096Z,13.90
2017-09-21T05:47:32.383Z,11.90
2017-09-21T05:49:59.887Z,12.63
2017-09-21T05:52:27.407Z,12.10
2017-09-21T05:54:54.919Z,11.90
2017-09-21T05:57:22.434Z,12.43
2017-09-21T05:59:49.939Z,13.87
2017-09-21T06:02:17.450Z,11.93
2017-09-21T06:04:44.951Z,10.77
2017-09-21T06:07:12.471Z,11.50
2017-09-21T06:09:39.971Z,11.30
2017-09-21T06:12:07.503Z,10.10
2017-09-21T06:14:35.015Z,14.60
2017-09-21T06:17:02.516Z,9.37
2017-09-21T06:19:30.790Z,8.53
2017-09-21T06:21:58.292Z,11.63
2017-09-21T06:24:26.589Z,15.90
2017-09-21T06:26:54.092Z,11.80
2017-09-21T06:29:21.603Z,12.27
2017-09-21T06:31:49.108Z,11.40
2017-09-21T06:34:16.627Z,10.67
2017-09-21T06:36:44.131Z,8.23
2017-09-21T06:39:11.643Z,10.10
2017-09-21T06:41:39.146Z,8.90
2017-09-21T06:44:06.664Z,10.30
2017-09-21T06:46:34.164Z,7.80
2017-09-21T06:49:01.687Z,10.20
2017-09-21T06:51:29.183Z,10.60
2017-09-21T06:53:56.698Z,10.10
2017-09-21T06:56:24.199Z,14.27
2017-09-21T06:58:51.715Z,11.57
2017-09-21T07:01:19.211Z,11.33
2017-09-21T07:03:46.723Z,13.13
2017-09-21T07:06:14.227Z,12.73
2017-09-21T07:08:41.744Z,11.20
2017-09-21T07:11:09.239Z,9.47
2017-09-21T07:13:36.739Z,10.57
2017-09-21T07:16:04.313Z,12.30
2017-09-21T07:18:31.880Z,8.57
2017-09-21T07:20:59.400Z,11.13
2017-09-21T07:23:27.672Z,9.13
2017-09-21T07:25:55.958Z,10.90
2017-09-21T07:28:24.227Z,6.87
2017-09-21T07:30:52.515Z,8.57
2017-09-21T07:33:20.027Z,9.07
2017-09-21T07:35:47.543Z,7.00
2017-09-21T07:38:15.043Z,8.57
2017-09-21T07:40:42.565Z,6.17
2017-09-21T07:43:10.071Z,6.60
2017-09-21T07:45:37.583Z,5.07
2017-09-21T07:48:05.083Z,4.93
2017-09-21T07:50:32.598Z,5.87
2017-09-21T07:53:00.108Z,9.03
2017-09-21T07:55:27.624Z,6.93
2017-09-21T07:57:55.127Z,8.07
2017-09-21T08:00:22.649Z,6.73
2017-09-21T08:02:50.156Z,5.60
2017-09-21T08:05:18.434Z,8.10
2017-09-21T08:07:46.703Z,8.43
2017-09-21T08:10:14.239Z,7.43
2017-09-21T08:12:41.743Z,9.93
2017-09-21T08:15:09.242Z,8.60
2017-09-21T08:17:36.758Z,11.60
2017-09-21T08:20:04.266Z,10.13
2017-09-21T08:22:31.787Z,12.17
2017-09-21T08:24:59.291Z,10.73
2017-09-21T08:27:26.803Z,13.63
2017-09-21T08:29:54.351Z,18.90
2017-09-21T08:32:21.932Z,18.33
2017-09-21T08:34:49.447Z,20.53
2017-09-21T08:37:17.811Z,14.23
2017-09-21T08:39:45.322Z,18.50
2017-09-21T08:42:12.847Z,17.70
2017-09-21T08:44:41.122Z,16.17
2017-09-21T08:47:09.416Z,18.73
2017-09-21T08:49:36.928Z,15.47
2017-09-21T08:52:04.760Z,17.60
2017-09-21T08:54:32.269Z,16.77
2017-09-21T08:56:59.790Z,17.43
2017-09-21T08:59:27.290Z,20.93
2017-09-21T09:01:54.810Z,22.67
2017-09-21T09:04:22.318Z,18.30
2017-09-21T09:06:50.615Z,19.13
2017-09-21T09:09:18.123Z,16.20
2017-09-21T09:11:45.626Z,17.43
2017-09-21T09:14:13.142Z,13.67
2017-09-21T09:16:40.648Z,14.07
2017-09-21T09:19:08.175Z,13.00
2017-09-21T09:21:35.675Z,12.60
2017-09-21T09:24:03.199Z,10.20
2017-09-21T09:26:31.468Z,7.40
2017-09-21T09:28:59.763Z,11.77
2017-09-21T09:31:27.310Z,13.20
2017-09-21T09:33:54.820Z,11.12
2017-09-21T09:36:22.323Z,9.33
2017-09-21T09:38:50.620Z,11.03
2017-09-21T09:41:18.224Z,10.10
2017-09-21T09:43:45.784Z,9.43
2017-09-21T09:46:13.306Z,8.40
2017-09-21T09:48:40.898Z,9.57
2017-09-21T09:51:08.459Z,10.60
2017-09-21T09:53:35.974Z,7.03
2017-09-21T09:56:03.481Z,10.10
2017-09-21T09:58:30.999Z,10.07
2017-09-21T10:00:58.502Z,10.87
2017-09-21T10:03:26.023Z,8.90
2017-09-21T10:05:53.523Z,9.73
2017-09-21T10:08:21.058Z,9.00
2017-09-21T10:10:48.561Z,7.60
2017-09-21T10:13:16.840Z,9.27
2017-09-21T10:15:45.123Z,8.57
2017-09-21T10:18:13.382Z,9.20
2017-09-21T10:20:41.747Z,8.20
2017-09-21T10:23:09.251Z,7.77
2017-09-21T10:25:36.771Z,9.97
2017-09-21T10:28:04.271Z,9.23
2017-09-21T10:30:31.791Z,7.10
2017-09-21T10:32:59.295Z,8.30
2017-09-21T10:35:26.816Z,6.43
2017-09-21T10:37:55.152Z,6.33
2017-09-21T10:40:22.674Z,9.60
2017-09-21T10:42:50.183Z,5.20
2017-09-21T10:45:17.700Z,6.03
2017-09-21T10:47:45.208Z,6.47
2017-09-21T10:50:12.735Z,13.50
2017-09-21T10:52:40.262Z,9.47
2017-09-21T10:55:07.841Z,6.50
2017-09-21T10:57:35.436Z,6.93
2017-09-21T11:00:03.821Z,6.13
2017-09-21T11:02:31.886Z,5.70
2017-09-21T11:05:00.332Z,5.93
2017-09-21T11:07:27.955Z,5.83
2017-09-21T11:09:55.515Z,4.80
2017-09-21T11:12:23.779Z,5.23
2017-09-21T11:14:51.275Z,5.30
2017-09-21T11:17:18.790Z,6.73
2017-09-21T11:19:46.286Z,5.73
2017-09-21T11:22:13.810Z,5.53
2017-09-21T11:24:41.311Z,6.27
2017-09-21T11:27:08.835Z,5.87
2017-09-21T11:29:37.110Z,5.60
2017-09-21T11:32:05.392Z,4.73
2017-09-21T11:34:33.663Z,5.57
2017-09-21T11:37:01.955Z,5.70
2017-09-21T11:39:29.455Z,4.63
2017-09-21T11:41:57.752Z,13.03
2017-09-21T11:44:25.250Z,5.07
2017-09-21T11:46:52.810Z,4.63
2017-09-21T11:49:21.214Z,3.97
2017-09-21T11:51:48.765Z,5.13
2017-09-21T11:54:16.279Z,5.53
2017-09-21T11:56:43.817Z,4.23
2017-09-21T11:59:11.323Z,4.23
2017-09-21T12:01:39.159Z,4.77
2017-09-21T12:04:06.677Z,4.70
2017-09-21T12:06:34.196Z,4.80
2017-09-21T12:09:02.462Z,4.50
2017-09-21T12:11:30.767Z,7.90
2017-09-21T12:13:58.267Z,4.43
2017-09-21T12:16:25.775Z,4.23
2017-09-21T12:18:53.294Z,5.50
2017-09-21T12:21:20.795Z,6.03
2017-09-21T12:23:48.346Z,5.00
2017-09-21T12:26:16.591Z,3.67
2017-09-21T12:28:44.115Z,3.90
2017-09-21T12:31:11.615Z,5.50
2017-09-21T12:33:39.911Z,5.20
2017-09-21T12:36:07.419Z,3.50
2017-09-21T12:38:34.935Z,3.60
2017-09-21T12:41:02.445Z,5.40
2017-09-21T12:43:29.972Z,3.77
2017-09-21T12:45:57.824Z,3.60
2017-09-21T12:48:25.349Z,3.77
2017-09-21T12:50:53.624Z,3.63
2017-09-21T12:53:21.924Z,3.50
2017-09-21T12:55:49.432Z,3.50
2017-09-21T12:58:16.947Z,3.30
2017-09-21T13:00:44.443Z,4.90
2017-09-21T13:03:11.964Z,4.43
2017-09-21T13:05:39.467Z,3.90
2017-09-21T13:08:07.052Z,4.40
2017-09-21T13:10:34.580Z,3.80
2017-09-21T13:15:37.756Z,3.57
2017-09-21T13:18:05.300Z,3.30
2017-09-21T13:20:32.808Z,4.27
2017-09-21T13:23:00.307Z,3.63
2017-09-21T13:25:28.591Z,4.30
2017-09-21T13:27:56.105Z,3.70
2017-09-21T13:30:23.620Z,4.40
2017-09-21T13:32:51.128Z,3.40
2017-09-21T13:35:18.652Z,3.37
2017-09-21T13:37:46.160Z,2.77
2017-09-21T13:40:14.446Z,3.83
2017-09-21T13:42:42.711Z,4.30
2017-09-21T13:45:10.990Z,3.90
2017-09-21T13:47:39.255Z,5.30
2017-09-21T13:50:06.807Z,4.30
2017-09-21T13:52:34.311Z,4.90
2017-09-21T13:55:01.828Z,4.63
2017-09-21T13:57:29.327Z,7.90
2017-09-21T13:59:56.840Z,6.30
2017-09-21T14:02:24.342Z,6.17
2017-09-21T14:04:51.864Z,6.10
2017-09-21T14:07:19.366Z,5.37
2017-09-21T14:09:46.892Z,4.33
2017-09-21T14:12:15.164Z,6.03
2017-09-21T14:14:43.727Z,4.93
2017-09-21T14:17:11.292Z,4.70
2017-09-21T14:19:38.818Z,7.80
2017-09-21T14:22:06.411Z,6.00
2017-09-21T14:24:33.919Z,8.33
2017-09-21T14:27:01.447Z,6.50
2017-09-21T14:29:29.711Z,9.73
2017-09-21T14:31:57.227Z,3.37
2017-09-21T14:34:24.728Z,4.17
2017-09-21T14:36:53.014Z,4.00
2017-09-21T14:39:21.286Z,5.00
2017-09-21T14:41:49.571Z,6.20
2017-09-21T14:44:17.835Z,4.50
2017-09-21T14:46:46.120Z,4.90
2017-09-21T14:49:14.387Z,3.90
2017-09-21T14:51:42.676Z,3.50
2017-09-21T14:54:10.939Z,5.67
2017-09-21T14:56:39.222Z,3.53
2017-09-21T14:59:07.491Z,4.23
2017-09-21T15:01:35.775Z,6.53
2017-09-21T15:04:04.048Z,3.80
2017-09-21T15:06:32.334Z,6.10
2017-09-21T15:09:00.604Z,4.13
2017-09-21T15:11:28.896Z,4.37
2017-09-21T15:13:56.403Z,4.93
2017-09-21T15:16:23.919Z,4.33
2017-09-21T15:18:51.427Z,4.40
2017-09-21T15:21:18.932Z,5.27
2017-09-21T15:23:46.456Z,5.20
2017-09-21T15:26:13.963Z,6.60
2017-09-21T15:28:41.488Z,4.30
2017-09-21T15:31:09.751Z,6.80
2017-09-21T15:33:38.039Z,5.03
2017-09-21T15:36:06.308Z,4.67
2017-09-21T15:38:34.586Z,3.77
2017-09-21T15:41:02.856Z,4.80
2017-09-21T15:43:31.146Z,4.50
2017-09-21T15:45:59.423Z,9.20
2017-09-21T15:48:27.712Z,5.90
2017-09-21T15:50:55.443Z,3.93
2017-09-21T15:53:22.964Z,4.30
2017-09-21T15:55:50.466Z,7.43
2017-09-21T15:58:18.755Z,8.40
2017-09-21T16:00:47.023Z,4.13
2017-09-21T16:03:15.307Z,5.83
2017-09-21T16:05:43.572Z,5.90
2017-09-21T16:08:11.860Z,4.30
2017-09-21T16:10:40.140Z,5.10
2017-09-21T16:13:07.663Z,5.60
2017-09-21T16:15:35.168Z,4.73
2017-09-21T16:18:02.695Z,4.80
2017-09-21T16:20:31.364Z,4.33
2017-09-21T16:22:58.866Z,5.80
2017-09-21T16:25:26.387Z,4.00
2017-09-21T16:27:53.887Z,5.37
2017-09-21T16:30:21.403Z,7.80
2017-09-21T16:32:48.931Z,7.00
2017-09-21T16:35:17.292Z,4.43
2017-09-21T16:37:44.834Z,5.10
2017-09-21T16:40:12.355Z,4.77
2017-09-21T16:42:39.855Z,7.60
2017-09-21T16:45:07.376Z,4.40
2017-09-21T16:47:34.887Z,6.90
2017-09-21T16:50:02.435Z,3.97
2017-09-21T16:52:29.931Z,4.57
2017-09-21T16:54:57.447Z,4.00
2017-09-21T16:57:24.955Z,4.53
2017-09-21T16:59:52.479Z,7.50
2017-09-21T17:02:19.982Z,7.13
2017-09-21T17:04:47.499Z,5.13
2017-09-21T17:07:14.999Z,5.90
2017-09-21T17:09:42.522Z,11.87
2017-09-21T17:12:10.027Z,11.80
2017-09-21T17:14:38.311Z,11.60
2017-09-21T17:17:06.578Z,8.60
2017-09-21T17:19:34.883Z,9.90
2017-09-21T17:22:02.387Z,9.13
2017-09-21T17:24:29.891Z,11.33
2017-09-21T17:26:57.413Z,6.00
2017-09-21T17:29:24.921Z,4.80
2017-09-21T17:31:52.444Z,8.47
2017-09-21T17:34:20.711Z,7.77
2017-09-21T17:36:48.236Z,7.17
2017-09-21T17:39:15.747Z,8.53
2017-09-21T17:41:44.054Z,8.17
2017-09-21T17:44:11.568Z,7.07
2017-09-21T17:46:39.859Z,8.10
2017-09-21T17:49:08.131Z,10.20
2017-09-21T17:51:36.415Z,9.53
2017-09-21T17:54:03.921Z,7.87
2017-09-21T17:56:31.448Z,9.50
2017-09-21T17:58:58.950Z,16.23
2017-09-21T18:01:26.483Z,32.83
2017-09-21T18:03:53.990Z,12.43
2017-09-21T18:06:22.556Z,12.00
2017-09-21T18:08:50.063Z,10.03
2017-09-21T18:11:17.591Z,22.10
2017-09-21T18:13:45.855Z,32.80
2017-09-21T18:16:13.391Z,36.37
2017-09-21T18:18:40.891Z,29.90
2017-09-21T18:21:08.447Z,30.53
2017-09-21T18:23:36.715Z,44.77
2017-09-21T18:26:05.283Z,27.60
2017-09-21T18:28:32.807Z,17.33
2017-09-21T18:31:00.608Z,17.13
2017-09-21T18:33:28.130Z,20.60
2017-09-21T18:35:55.628Z,15.60
2017-09-21T18:38:23.152Z,14.23
2017-09-21T18:40:50.655Z,32.20
2017-09-21T18:43:18.942Z,22.80
2017-09-21T18:45:47.215Z,80.10
2017-09-21T18:48:15.515Z,59.87
2017-09-21T18:50:43.087Z,21.00
2017-09-21T18:53:10.670Z,18.07
2017-09-21T18:55:38.939Z,12.03
2017-09-21T18:58:06.455Z,10.97
2017-09-21T19:00:33.959Z,19.07
2017-09-21T19:03:01.485Z,17.30
2017-09-21T19:05:28.987Z,28.57
2017-09-21T19:07:56.511Z,31.57
2017-09-21T19:10:24.019Z,22.40
2017-09-21T19:12:52.303Z,17.83
2017-09-21T19:15:20.567Z,30.30
2017-09-21T19:17:48.138Z,32.23
2017-09-21T19:20:16.413Z,32.90
2017-09-21T19:22:44.715Z,32.57
2017-09-21T19:25:12.228Z,30.07
2017-09-21T19:27:39.734Z,29.33
2017-09-21T19:30:07.307Z,22.93
2017-09-21T19:32:34.816Z,46.40
2017-09-21T19:35:03.162Z,50.40
2017-09-21T19:37:30.723Z,31.27
2017-09-21T19:39:58.249Z,20.03
2017-09-21T19:42:25.754Z,19.97
2017-09-21T19:44:53.330Z,24.80
2017-09-21T19:47:21.603Z,19.40
2017-09-21T19:49:49.124Z,20.20
2017-09-21T19:52:17.392Z,21.50
2017-09-21T19:54:44.915Z,20.47
2017-09-21T19:57:13.233Z,29.63
2017-09-21T19:59:40.871Z,25.30
2017-09-21T20:02:08.379Z,25.00
2017-09-21T20:04:35.900Z,25.40
2017-09-21T20:07:03.412Z,19.77
2017-09-21T20:09:31.704Z,23.90
2017-09-21T20:11:59.971Z,26.87
2017-09-21T20:14:28.260Z,33.00
2017-09-21T20:16:55.758Z,35.83
2017-09-21T20:19:23.280Z,32.27
2017-09-21T20:21:50.778Z,31.37
2017-09-21T20:24:18.299Z,29.63
2017-09-21T20:26:45.850Z,37.73
2017-09-21T20:29:13.353Z,33.83
2017-09-21T20:31:40.880Z,37.37
2017-09-21T20:34:08.377Z,33.00
2017-09-21T20:36:35.894Z,31.70
2017-09-21T20:39:03.416Z,32.20
2017-09-21T20:41:30.940Z,31.70
2017-09-21T20:43:58.443Z,36.13
2017-09-21T20:46:26.722Z,35.00
2017-09-21T20:48:54.990Z,33.07
2017-09-21T20:51:23.270Z,33.77
2017-09-21T20:53:51.545Z,36.27
2017-09-21T20:56:19.861Z,34.93
2017-09-21T20:58:47.368Z,33.73
2017-09-21T21:01:14.888Z,32.70
2017-09-21T21:03:42.405Z,31.47
2017-09-21T21:06:10.696Z,32.70
2017-09-21T21:08:38.205Z,31.60
2017-09-21T21:11:05.728Z,33.37
2017-09-21T21:13:33.232Z,32.97
2017-09-21T21:16:00.755Z,29.63
2017-09-21T21:18:28.259Z,26.93
2017-09-21T21:20:56.555Z,28.57
2017-09-21T21:23:24.064Z,40.10
2017-09-21T21:25:51.570Z,32.97
2017-09-21T21:28:19.093Z,32.33
2017-09-21T21:30:46.599Z,34.77
2017-09-21T21:33:14.111Z,33.57
2017-09-21T21:35:41.615Z,36.67
2017-09-21T21:38:09.145Z,31.40
2017-09-21T21:40:37.415Z,39.20
2017-09-21T21:43:04.939Z,34.13
2017-09-21T21:45:33.207Z,34.37
2017-09-21T21:48:00.718Z,32.47
2017-09-21T21:50:28.988Z,33.63
2017-09-21T21:52:57.275Z,29.87
2017-09-21T21:55:25.556Z,40.80
2017-09-21T21:57:53.075Z,36.30
2017-09-21T22:00:20.587Z,30.83
2017-09-21T22:02:48.124Z,31.63
2017-09-21T22:05:16.394Z,26.87
2017-09-21T22:07:44.678Z,24.43
2017-09-21T22:10:12.951Z,27.40
2017-09-21T22:12:41.234Z,31.10
2017-09-21T22:15:08.767Z,24.30
2017-09-21T22:17:36.282Z,26.00
2017-09-21T22:20:03.808Z,26.70
2017-09-21T22:22:32.075Z,27.07
2017-09-21T22:25:00.361Z,24.43
2017-09-21T22:27:28.626Z,23.37
2017-09-21T22:29:56.911Z,25.03
2017-09-21T22:32:25.179Z,25.90
2017-09-21T22:34:53.466Z,27.80
2017-09-21T22:37:20.975Z,28.57
2017-09-21T22:39:49.264Z,27.57
2017-09-21T22:42:16.762Z,24.50
2017-09-21T22:44:44.298Z,24.77
2017-09-21T22:47:12.578Z,25.13
2017-09-21T22:49:40.860Z,25.10
2017-09-21T22:52:09.147Z,33.17
2017-09-21T22:54:36.651Z,21.97
2017-09-21T22:57:04.165Z,26.03
2017-09-21T22:59:31.674Z,26.00
2017-09-21T23:01:59.187Z,27.90
2017-09-21T23:04:26.695Z,30.73
2017-09-21T23:06:54.215Z,29.03
2017-09-21T23:09:21.711Z,26.50
2017-09-21T23:11:49.243Z,33.80
2017-09-21T23:14:16.743Z,26.87
2017-09-21T23:16:44.259Z,28.40
2017-09-21T23:19:11.759Z,29.20
2017-09-21T23:21:39.319Z,23.70
2017-09-21T23:24:06.841Z,28.67
2017-09-21T23:26:34.374Z,27.03
2017-09-21T23:29:01.882Z,27.60
2017-09-21T23:31:29.407Z,28.30
2017-09-21T23:33:56.911Z,33.80
2017-09-21T23:36:24.432Z,29.07
2017-09-21T23:38:51.942Z,31.50
2017-09-21T23:41:20.236Z,29.47
2017-09-21T23:43:47.744Z,27.27
2017-09-21T23:46:15.283Z,31.20
2017-09-21T23:48:42.783Z,30.73
2017-09-21T23:51:11.051Z,28.77
2017-09-21T23:53:38.575Z,27.40
2017-09-21T23:56:06.078Z,30.60
2017-09-21T23:58:34.370Z,23.97
